Time;durP1;ratioP1;P1;durP2;ratioP2;P2;SDS_P1;SDS_P2;PMS_P1;PMS_P2;Temp;Humidity;BMP_temperature;BMP_pressure;BME280_temperature;BME280_humidity;BME280_pressure;Samples;Min_cycle;Max_cycle;Signal;HPM_P1;HPM_P2
2023/07/07 00:01:08;;;;;;;7.53;4.13;;;;;;;17.16;100.00;97587.13;5070195;28;20404;-74
2023/07/07 00:03:34;;;;;;;6.50;4.50;;;;;;;17.14;100.00;97592.00;5069949;28;20403;-73
2023/07/07 00:06:02;;;;;;;7.55;4.80;;;;;;;17.10;100.00;97586.41;5052284;28;20411;-73
2023/07/07 00:08:28;;;;;;;5.30;3.90;;;;;;;17.11;100.00;97584.53;5052131;28;20392;-73
2023/07/07 00:10:58;;;;;;;6.57;4.50;;;;;;;17.07;100.00;97596.88;5070296;28;20687;-73
2023/07/07 00:13:25;;;;;;;5.22;3.88;;;;;;;17.02;100.00;97587.84;5069834;28;20403;-73
2023/07/07 00:15:56;;;;;;;4.57;3.50;;;;;;;16.98;100.00;97581.50;5070192;28;20490;-73
2023/07/07 00:18:26;;;;;;;5.28;3.83;;;;;;;16.97;100.00;97584.44;5070091;28;20394;-73
2023/07/07 00:20:52;;;;;;;5.63;4.05;;;;;;;16.95;100.00;97586.59;5069995;28;20461;-73
2023/07/07 00:23:20;;;;;;;6.63;3.88;;;;;;;16.92;100.00;97589.84;5070661;28;20399;-73
2023/07/07 00:25:56;;;;;;;6.07;4.28;;;;;;;16.89;100.00;97585.09;5073970;28;20408;-73
2023/07/07 00:28:22;;;;;;;5.57;4.15;;;;;;;16.85;100.00;97579.50;5073771;28;20496;-74
2023/07/07 00:30:48;;;;;;;6.72;4.47;;;;;;;16.81;100.00;97591.88;5073750;28;20407;-73
2023/07/07 00:33:14;;;;;;;5.95;4.28;;;;;;;16.78;100.00;97583.59;5073339;28;20453;-73
2023/07/07 00:35:45;;;;;;;5.63;3.90;;;;;;;16.73;100.00;97584.47;5073746;28;20893;-73
2023/07/07 00:38:12;;;;;;;5.78;3.90;;;;;;;16.71;100.00;97589.31;5073562;28;20423;-73
2023/07/07 00:40:39;;;;;;;6.13;4.43;;;;;;;16.65;100.00;97585.09;5073633;28;20889;-73
2023/07/07 00:43:10;;;;;;;4.28;3.70;;;;;;;16.62;100.00;97581.09;5073264;28;20399;-73
2023/07/07 00:45:37;;;;;;;7.75;4.68;;;;;;;16.59;100.00;97581.66;5073536;28;20445;-73
2023/07/07 00:48:06;;;;;;;6.13;4.20;;;;;;;16.58;100.00;97581.94;5055411;28;20463;-73
2023/07/07 00:50:37;;;;;;;6.33;4.50;;;;;;;16.55;100.00;97579.81;5073402;28;20403;-73
2023/07/07 00:53:04;;;;;;;5.70;4.22;;;;;;;16.51;100.00;97579.63;5072992;28;20412;-73
2023/07/07 00:55:37;;;;;;;6.13;4.47;;;;;;;16.48;100.00;97580.16;5073297;28;20396;-73
2023/07/07 00:58:09;;;;;;;7.53;4.50;;;;;;;16.43;100.00;97590.91;5073250;28;20400;-73
2023/07/07 01:00:39;;;;;;;7.13;4.55;;;;;;;16.39;100.00;97587.22;5073177;28;20926;-73
2023/07/07 01:03:10;;;;;;;5.30;4.10;;;;;;;16.36;100.00;97592.34;5072956;28;20392;-73
2023/07/07 01:05:38;;;;;;;5.95;4.70;;;;;;;16.34;100.00;97594.47;5055186;28;20408;-73
2023/07/07 01:08:06;;;;;;;5.80;4.28;;;;;;;16.34;100.00;97600.63;5073004;28;20506;-73
2023/07/07 01:10:32;;;;;;;4.60;4.07;;;;;;;16.32;100.00;97597.44;5073159;28;20807;-73
2023/07/07 01:12:58;;;;;;;5.65;4.20;;;;;;;16.30;100.00;97601.47;5072613;28;20402;-73
2023/07/07 01:15:30;;;;;;;6.57;4.30;;;;;;;16.26;100.00;97601.25;5072938;28;20400;-73
2023/07/07 01:18:07;;;;;;;5.55;4.00;;;;;;;16.23;100.00;97605.28;5054814;28;20403;-73
2023/07/07 01:20:41;;;;;;;7.30;4.60;;;;;;;16.19;100.00;97604.25;5072950;28;20406;-73
2023/07/07 01:23:41;;;;;;;5.00;4.23;;;;;;;16.15;100.00;97608.56;5054498;28;20427;-73
2023/07/07 01:26:37;;;;;;;7.45;4.50;;;;;;;16.12;100.00;97603.78;5065585;28;20426;-73
2023/07/07 01:29:46;;;;;;;7.13;4.90;;;;;;;16.10;100.00;97600.59;5072729;28;20464;-73
2023/07/07 01:32:18;;;;;;;5.18;3.80;;;;;;;16.10;100.00;97611.25;5065441;28;20621;-73
2023/07/07 01:34:46;;;;;;;5.65;4.30;;;;;;;16.09;100.00;97609.66;5071992;28;20886;-73
2023/07/07 01:37:13;;;;;;;4.30;3.88;;;;;;;16.08;100.00;97604.63;5072374;28;20866;-73
2023/07/07 01:39:41;;;;;;;4.97;4.10;;;;;;;16.07;100.00;97600.38;5072444;28;20410;-73
2023/07/07 01:42:11;;;;;;;5.57;4.35;;;;;;;16.06;100.00;97602.22;5072273;28;20396;-73
2023/07/07 01:44:44;;;;;;;5.32;3.97;;;;;;;16.03;100.00;97607.31;5072215;28;20388;-73
2023/07/07 01:47:16;;;;;;;5.95;4.55;;;;;;;15.99;100.00;97599.09;5072303;28;20444;-73
2023/07/07 01:49:49;;;;;;;5.75;4.40;;;;;;;15.97;100.00;97605.78;5072323;28;20877;-73
2023/07/07 01:52:21;;;;;;;5.85;3.88;;;;;;;15.93;100.00;97602.09;5072064;28;20457;-73
2023/07/07 01:54:53;;;;;;;5.45;4.32;;;;;;;15.89;100.00;97601.84;5072089;28;20410;-73
2023/07/07 01:57:21;;;;;;;5.45;4.47;;;;;;;15.87;100.00;97607.44;5072176;28;20399;-73
2023/07/07 01:59:47;;;;;;;4.87;4.13;;;;;;;15.85;100.00;97609.63;5072004;28;20409;-73
2023/07/07 02:02:15;;;;;;;5.88;4.50;;;;;;;15.82;100.00;97602.16;5071895;28;20482;-73
2023/07/07 02:04:41;;;;;;;6.63;4.35;;;;;;;15.80;100.00;97608.84;5071682;28;20832;-73
2023/07/07 02:07:07;;;;;;;6.88;4.28;;;;;;;15.78;100.00;97603.81;5071729;28;20461;-73
2023/07/07 02:09:34;;;;;;;6.35;4.43;;;;;;;15.74;100.00;97594.75;5071838;28;20404;-73
2023/07/07 02:12:00;;;;;;;6.47;4.18;;;;;;;15.69;100.00;97591.31;5054110;28;20808;-73
2023/07/07 02:14:26;;;;;;;6.57;4.90;;;;;;;15.64;100.00;97592.16;5071623;28;20502;-73
2023/07/07 02:16:52;;;;;;;7.70;4.88;;;;;;;15.60;100.00;97593.00;5071744;28;20404;-73
2023/07/07 02:19:20;;;;;;;6.95;4.75;;;;;;;15.56;100.00;97597.31;5053803;28;20788;-73
2023/07/07 02:21:46;;;;;;;5.45;4.50;;;;;;;15.52;100.00;97594.34;5071667;28;20406;-73
2023/07/07 02:24:13;;;;;;;4.90;4.10;;;;;;;15.49;100.00;97590.34;5071486;28;20485;-73
2023/07/07 02:26:39;;;;;;;4.35;3.70;;;;;;;15.48;100.00;97590.66;5071414;28;20431;-73
2023/07/07 02:29:05;;;;;;;5.82;4.50;;;;;;;15.48;100.00;97590.66;5071495;28;20430;-73
2023/07/07 02:31:31;;;;;;;6.32;4.22;;;;;;;15.48;100.00;97594.13;5053616;28;20792;-73
2023/07/07 02:33:57;;;;;;;6.43;4.50;;;;;;;15.46;100.00;97596.25;5071237;28;20475;-73
2023/07/07 02:36:25;;;;;;;5.63;4.50;;;;;;;15.43;100.00;97599.47;5071252;28;20399;-73
2023/07/07 02:38:54;;;;;;;7.47;4.10;;;;;;;15.38;100.00;97594.19;5071256;28;20420;-73
2023/07/07 02:41:21;;;;;;;6.47;4.70;;;;;;;15.34;100.00;97590.44;5071254;28;20495;-73
2023/07/07 02:43:47;;;;;;;7.60;4.85;;;;;;;15.31;100.00;97593.69;5071037;28;20911;-73
2023/07/07 02:46:13;;;;;;;11.00;5.07;;;;;;;15.29;100.00;97593.16;5070413;28;20411;-73
2023/07/07 02:48:39;;;;;;;6.95;5.03;;;;;;;15.25;100.00;97589.47;5071046;28;20415;-73
2023/07/07 02:51:07;;;;;;;6.47;4.57;;;;;;;15.22;100.00;97589.19;5071002;28;20881;-74
2023/07/07 02:53:36;;;;;;;6.90;4.93;;;;;;;15.19;100.00;97590.53;5070699;28;20453;-73
2023/07/07 02:56:02;;;;;;;5.75;4.20;;;;;;;15.19;100.00;97589.75;5071011;28;20408;-74
2023/07/07 02:58:28;;;;;;;7.60;4.78;;;;;;;15.19;100.00;97597.75;5053034;28;20469;-73
2023/07/07 03:01:09;;;;;;;6.57;5.07;;;;;;;15.17;100.00;97591.91;5070923;28;20786;-74
2023/07/07 03:03:36;;;;;;;5.75;4.68;;;;;;;15.17;100.00;97586.56;5070789;28;20760;-73
2023/07/07 03:06:03;;;;;;;7.88;4.88;;;;;;;15.15;100.00;97588.72;5070898;28;20407;-73
2023/07/07 03:08:29;;;;;;;6.47;4.73;;;;;;;15.13;100.00;97588.97;5070739;28;20464;-74
2023/07/07 03:10:57;;;;;;;6.82;4.78;;;;;;;15.09;100.00;97583.41;5070758;28;20412;-73
2023/07/07 03:13:23;;;;;;;5.85;4.60;;;;;;;15.07;100.00;97593.53;5052529;28;20407;-73
2023/07/07 03:15:49;;;;;;;6.97;4.70;;;;;;;15.04;100.00;97587.94;5070909;28;20453;-74
2023/07/07 03:18:15;;;;;;;7.32;4.70;;;;;;;15.04;100.00;97598.63;5070697;28;20406;-74
2023/07/07 03:20:49;;;;;;;6.93;4.82;;;;;;;15.02;100.00;97600.78;5070611;28;20471;-74
2023/07/07 03:23:16;;;;;;;6.65;4.97;;;;;;;15.01;100.00;97610.66;5070407;28;20392;-74
2023/07/07 03:25:43;;;;;;;7.72;5.07;;;;;;;14.99;100.00;97609.31;5070596;28;20411;-74
2023/07/07 03:28:10;;;;;;;7.05;4.40;;;;;;;14.96;100.00;97609.88;5070503;28;20411;-74
2023/07/07 03:30:36;;;;;;;9.33;5.10;;;;;;;14.93;100.00;97613.88;5070519;28;20396;-73
2023/07/07 03:33:03;;;;;;;6.50;4.55;;;;;;;14.91;100.00;97610.69;5070192;28;20461;-73
2023/07/07 03:35:29;;;;;;;6.37;4.97;;;;;;;14.88;100.00;97619.22;5070453;28;20956;-74
2023/07/07 03:37:55;;;;;;;6.47;4.97;;;;;;;14.85;100.00;97616.31;5070409;28;20407;-73
2023/07/07 03:40:21;;;;;;;6.80;5.00;;;;;;;14.82;100.00;97620.31;5070444;28;20431;-74
2023/07/07 03:42:47;;;;;;;8.13;4.88;;;;;;;14.81;100.00;97623.25;5070113;28;20411;-74
2023/07/07 03:45:16;;;;;;;6.70;5.05;;;;;;;14.81;100.00;97623.25;5070425;28;20945;-74
2023/07/07 03:47:43;;;;;;;7.03;5.00;;;;;;;14.80;100.00;97624.31;5070137;28;20407;-74
2023/07/07 03:50:10;;;;;;;7.57;5.00;;;;;;;14.83;100.00;97624.56;5069814;28;20415;-74
2023/07/07 03:52:36;;;;;;;6.80;4.75;;;;;;;14.83;100.00;97629.09;5052135;28;20411;-74
2023/07/07 03:55:04;;;;;;;6.70;5.07;;;;;;;14.81;100.00;97636.59;5070255;28;20438;-74
2023/07/07 03:57:30;;;;;;;6.50;4.55;;;;;;;14.79;100.00;97639.50;5071592;28;20392;-74
2023/07/07 03:59:56;;;;;;;6.93;4.55;;;;;;;14.80;100.00;97640.31;5074508;28;20450;-74
2023/07/07 04:02:24;;;;;;;6.45;4.70;;;;;;;14.80;100.00;97635.78;5074460;28;20408;-74
2023/07/07 04:04:50;;;;;;;7.20;4.82;;;;;;;14.82;100.00;97630.16;5074461;28;20400;-74
2023/07/07 04:07:16;;;;;;;6.20;4.50;;;;;;;14.82;100.00;97638.94;5074615;28;20415;-74
2023/07/07 04:09:42;;;;;;;6.35;4.65;;;;;;;14.83;100.00;97639.75;5074525;28;20404;-73
2023/07/07 04:12:09;;;;;;;6.57;4.82;;;;;;;14.84;100.00;97641.34;5074212;28;20478;-73
2023/07/07 04:14:35;;;;;;;6.53;4.93;;;;;;;14.88;100.00;97637.09;5074279;28;20718;-73
2023/07/07 04:17:02;;;;;;;5.32;4.47;;;;;;;14.91;100.00;97642.66;5074302;28;20462;-73
2023/07/07 04:19:30;;;;;;;6.90;5.00;;;;;;;14.95;100.00;97633.06;5074248;28;20478;-73
2023/07/07 04:21:56;;;;;;;6.13;4.60;;;;;;;14.99;100.00;97634.09;5074121;28;20396;-73
2023/07/07 04:24:22;;;;;;;6.45;4.50;;;;;;;15.03;100.00;97640.50;5074216;28;20792;-73
2023/07/07 04:26:50;;;;;;;5.50;4.60;;;;;;;15.09;100.00;97643.94;5073935;28;20412;-73
2023/07/07 04:29:17;;;;;;;6.05;4.10;;;;;;;15.12;100.00;97635.38;5074121;28;20408;-73
2023/07/07 04:31:45;;;;;;;5.07;4.32;;;;;;;15.15;100.00;97640.16;5070480;28;20419;-74
2023/07/07 04:34:11;;;;;;;4.88;4.10;;;;;;;15.21;100.00;97641.75;5073431;28;20900;-74
2023/07/07 04:36:39;;;;;;;4.50;4.00;;;;;;;15.25;100.00;97645.47;5072571;28;20411;-74
2023/07/07 04:39:05;;;;;;;6.60;4.93;;;;;;;15.31;100.00;97655.03;5072925;28;20400;-74
2023/07/07 04:41:31;;;;;;;6.97;5.75;;;;;;;15.37;100.00;97645.94;5072564;28;20799;-74
2023/07/07 04:43:59;;;;;;;6.97;4.78;;;;;;;15.44;100.00;97653.63;5073418;28;20453;-74
2023/07/07 04:46:28;;;;;;;7.78;4.93;;;;;;;15.49;100.00;97657.06;5073411;28;20893;-74
2023/07/07 04:48:55;;;;;;;6.93;5.00;;;;;;;15.55;100.00;97654.41;5073801;28;20400;-74
2023/07/07 04:51:21;;;;;;;5.60;4.50;;;;;;;15.59;100.00;97661.56;5055756;28;20465;-73
2023/07/07 04:53:49;;;;;;;4.97;4.38;;;;;;;15.65;100.00;97657.78;5073519;28;20419;-74
2023/07/07 04:56:17;;;;;;;4.95;4.03;;;;;;;15.74;100.00;97666.00;5073114;28;21023;-74
2023/07/07 04:58:46;;;;;;;5.18;4.15;;;;;;;15.82;100.00;97654.75;5073420;28;20419;-74
2023/07/07 05:01:15;;;;;;;4.40;3.97;;;;;;;15.92;100.00;97665.38;5073141;28;20461;-74
2023/07/07 05:03:43;;;;;;;6.00;4.25;;;;;;;16.00;100.00;97656.75;5073019;28;20471;-74
2023/07/07 05:06:10;;;;;;;4.65;3.78;;;;;;;16.09;100.00;97662.28;5072987;28;20396;-73
2023/07/07 05:08:39;;;;;;;4.18;3.78;;;;;;;16.18;100.00;97660.59;5072197;28;20408;-73
2023/07/07 05:11:09;;;;;;;4.93;3.58;;;;;;;16.28;100.00;97657.84;5072396;28;20434;-73
2023/07/07 05:13:35;;;;;;;4.32;3.70;;;;;;;16.38;100.00;97657.78;5072765;28;20482;-73
2023/07/07 05:16:03;;;;;;;5.45;3.88;;;;;;;16.48;100.00;97657.66;5073050;28;20396;-73
2023/07/07 05:18:30;;;;;;;4.20;3.55;;;;;;;16.56;100.00;97658.94;5073017;28;20454;-74
2023/07/07 05:20:56;;;;;;;3.92;3.17;;;;;;;16.64;100.00;97658.34;5073090;28;20440;-74
2023/07/07 05:23:23;;;;;;;4.35;3.88;;;;;;;16.70;100.00;97659.88;5072513;28;20419;-74
2023/07/07 05:25:50;;;;;;;4.10;3.63;;;;;;;16.78;100.00;97661.13;5072675;28;20787;-74
2023/07/07 05:28:18;;;;;;;4.88;3.70;;;;;;;16.84;100.00;97666.13;5054688;28;20416;-74
2023/07/07 05:30:44;;;;;;;4.80;3.80;;;;;;;16.90;100.00;97667.69;5072528;28;20392;-74
2023/07/07 05:33:11;;;;;;;4.70;3.75;;;;;;;16.97;100.00;97662.00;5072342;28;20797;-72
2023/07/07 05:35:45;;;;;;;4.25;3.53;;;;;;;17.02;100.00;97664.63;5072527;28;20396;-75
2023/07/07 05:38:11;;;;;;;5.28;4.03;;;;;;;17.10;100.00;97663.97;5072589;28;20431;-74
2023/07/07 05:40:40;;;;;;;4.70;3.77;;;;;;;17.16;100.00;97660.16;5072555;28;20411;-74
2023/07/07 05:43:06;;;;;;;4.90;4.03;;;;;;;17.21;100.00;97662.78;5072380;28;20400;-73
2023/07/07 05:45:34;;;;;;;4.88;3.85;;;;;;;17.27;100.00;97672.34;5072413;28;20408;-73
2023/07/07 05:48:00;;;;;;;5.25;4.07;;;;;;;17.31;100.00;97659.97;5072289;28;20503;-74
2023/07/07 05:50:27;;;;;;;4.82;4.05;;;;;;;17.37;100.00;97663.38;5072557;28;20419;-74
2023/07/07 05:52:53;;;;;;;5.57;4.03;;;;;;;17.40;100.00;97666.28;5071535;28;20404;-75
2023/07/07 05:55:27;;;;;;;6.50;4.03;;;;;;;17.42;100.00;97664.13;5071803;28;20729;-75
2023/07/07 05:57:53;;;;;;;4.93;3.95;;;;;;;17.46;100.00;97666.19;5069729;28;20400;-74
2023/07/07 06:00:20;;;;;;;5.38;4.05;;;;;;;17.49;100.00;97671.00;5072052;28;20446;-74
2023/07/07 06:02:47;;;;;;;5.65;4.10;;;;;;;17.51;100.00;97666.94;5071533;28;20461;-74
2023/07/07 06:05:14;;;;;;;4.97;3.85;;;;;;;17.53;100.00;97672.00;5072372;28;20399;-73
2023/07/07 06:07:40;;;;;;;4.47;3.80;;;;;;;17.56;100.00;97669.53;5072253;28;20426;-73
2023/07/07 06:10:09;;;;;;;4.30;3.90;;;;;;;17.60;100.00;97673.22;5072355;28;20431;-73
2023/07/07 06:12:35;;;;;;;5.63;4.22;;;;;;;17.62;100.00;97676.44;5072049;28;20396;-73
2023/07/07 06:15:02;;;;;;;6.20;4.50;;;;;;;17.64;100.00;97676.97;5072047;28;20403;-73
2023/07/07 06:17:28;;;;;;;5.43;4.30;;;;;;;17.67;100.00;97675.56;5072082;28;20474;-73
2023/07/07 06:19:55;;;;;;;4.88;3.60;;;;;;;17.70;100.00;97683.03;5071665;28;20404;-73
2023/07/07 06:22:22;;;;;;;8.63;4.60;;;;;;;17.74;100.00;97686.75;5071899;28;20479;-73
2023/07/07 06:24:48;;;;;;;6.55;4.28;;;;;;;17.77;100.00;97686.94;5085788;22;20413;-72
2023/07/07 06:27:15;;;;;;;6.50;3.80;;;;;;;17.82;100.00;97688.75;5070216;28;20875;-72
2023/07/07 06:29:42;;;;;;;5.70;3.83;;;;;;;17.86;100.00;97689.78;5071937;28;20896;-73
2023/07/07 06:32:09;;;;;;;4.93;3.70;;;;;;;17.91;100.00;97691.56;5070718;28;20408;-73
2023/07/07 06:34:35;;;;;;;6.57;4.03;;;;;;;17.96;100.00;97678.13;5071468;28;20513;-72
2023/07/07 06:37:03;;;;;;;4.75;3.88;;;;;;;18.00;100.00;97681.78;5070018;28;20403;-71
2023/07/07 06:39:29;;;;;;;4.50;3.40;;;;;;;18.05;100.00;97687.84;5051250;28;20406;-72
2023/07/07 06:41:56;;;;;;;4.88;3.60;;;;;;;18.09;100.00;97688.09;5048620;28;20401;-72
2023/07/07 06:44:22;;;;;;;5.22;4.00;;;;;;;18.14;100.00;97691.47;5050808;28;20415;-72
2023/07/07 06:46:49;;;;;;;4.75;3.70;;;;;;;18.19;100.00;97698.66;5051349;28;20451;-72
2023/07/07 06:49:15;;;;;;;9.23;5.28;;;;;;;18.26;100.00;97695.59;5050324;28;20393;-72
2023/07/07 06:51:41;;;;;;;9.27;5.03;;;;;;;18.29;100.00;97695.00;5050582;28;20401;-72
2023/07/07 06:54:09;;;;;;;9.40;5.13;;;;;;;18.36;100.00;97692.72;5050976;28;20405;-72
2023/07/07 06:56:35;;;;;;;8.93;5.43;;;;;;;18.49;100.00;97706.16;5050919;28;20458;-74
2023/07/07 06:59:03;;;;;;;10.52;5.38;;;;;;;18.49;100.00;97705.41;5050651;28;20407;-73
2023/07/07 07:01:29;;;;;;;8.30;5.00;;;;;;;18.53;100.00;97706.38;5043657;28;20413;-73
2023/07/07 07:03:56;;;;;;;6.47;4.50;;;;;;;18.62;100.00;97704.66;5050777;28;20483;-73
2023/07/07 07:06:22;;;;;;;8.80;4.85;;;;;;;18.68;100.00;97708.03;5050337;28;20463;-73
2023/07/07 07:08:48;;;;;;;7.20;4.70;;;;;;;18.73;100.00;97702.59;5050778;28;20417;-73
2023/07/07 07:11:16;;;;;;;6.47;3.92;;;;;;;18.80;100.00;97703.00;5050715;28;20474;-72
2023/07/07 07:13:43;;;;;;;7.88;4.57;;;;;;;18.87;100.00;97709.56;5048877;28;20432;-72
2023/07/07 07:16:09;;;;;;;9.93;5.03;;;;;;;18.85;100.00;97714.44;5050314;28;20401;-72
2023/07/07 07:18:35;;;;;;;7.68;5.20;;;;;;;18.94;100.00;97706.50;5050723;28;20483;-72
2023/07/07 07:21:01;;;;;;;6.82;4.20;;;;;;;19.07;100.00;97721.00;5050710;28;20401;-72
2023/07/07 07:23:27;;;;;;;6.95;4.60;;;;;;;19.09;100.00;97718.84;5050401;28;20410;-72
2023/07/07 07:25:54;;;;;;;11.07;5.38;;;;;;;19.18;100.00;97708.97;5050357;28;20439;-72
2023/07/07 07:28:21;;;;;;;7.68;4.05;;;;;;;19.23;100.00;97717.75;5050563;28;20475;-72
2023/07/07 07:30:48;;;;;;;5.70;4.03;;;;;;;19.32;100.00;97715.16;5050551;28;20748;-72
2023/07/07 07:33:20;;;;;;;11.23;5.13;;;;;;;19.41;100.00;97709.88;5049713;28;20401;-72
2023/07/07 07:35:46;;;;;;;7.65;4.18;;;;;;;19.49;100.00;97712.66;5050331;28;20512;-71
2023/07/07 07:38:14;;;;;;;5.55;4.03;;;;;;;19.57;100.00;97708.50;5050379;28;20398;-71
2023/07/07 07:40:40;;;;;;;4.97;3.55;;;;;;;19.64;100.00;97706.97;5050320;28;20886;-72
2023/07/07 07:43:07;;;;;;;5.22;3.40;;;;;;;19.67;100.00;97706.38;5050013;28;20913;-72
2023/07/07 07:45:35;;;;;;;7.15;4.32;;;;;;;19.68;100.00;97705.31;5050360;28;20903;-72
2023/07/07 07:48:01;;;;;;;5.75;4.20;;;;;;;19.76;100.00;97706.47;5050384;28;20417;-73
2023/07/07 07:50:28;;;;;;;7.40;4.20;;;;;;;19.83;100.00;97696.09;5050386;28;20405;-73
2023/07/07 07:52:55;;;;;;;5.10;3.65;;;;;;;19.89;100.00;97702.16;5032095;28;20397;-73
2023/07/07 07:55:21;;;;;;;8.60;3.55;;;;;;;19.91;100.00;97699.97;5050377;28;20496;-73
2023/07/07 07:57:47;;;;;;;8.02;3.95;;;;;;;19.99;100.00;97705.41;5050213;28;20413;-73
2023/07/07 08:00:14;;;;;;;6.03;4.15;;;;;;;20.03;100.00;97703.69;5050294;28;20475;-73
2023/07/07 08:02:42;;;;;;;6.50;4.40;;;;;;;20.11;100.00;97704.88;5050096;28;20763;-73
2023/07/07 08:05:09;;;;;;;7.40;4.70;;;;;;;20.24;100.00;97712.06;5050222;28;20406;-73
2023/07/07 08:07:35;;;;;;;9.33;4.70;;;;;;;20.21;100.00;97701.94;5050143;28;20440;-72
2023/07/07 08:10:03;;;;;;;7.05;4.78;;;;;;;20.33;100.00;97715.66;5050235;28;20412;-73
2023/07/07 08:12:29;;;;;;;6.95;4.50;;;;;;;20.54;100.00;97697.13;5049997;28;20882;-73
2023/07/07 08:14:55;;;;;;;6.22;4.38;;;;;;;20.61;100.00;97700.16;5050000;28;20464;-73
2023/07/07 08:17:22;;;;;;;7.05;4.30;;;;;;;20.73;100.00;97702.31;5050125;28;20809;-73
2023/07/07 08:19:49;;;;;;;9.40;5.32;;;;;;;20.73;100.00;97699.59;5050163;28;20424;-73
2023/07/07 08:22:17;;;;;;;7.22;4.43;;;;;;;20.90;100.00;97701.59;5050066;28;20763;-73
2023/07/07 08:24:48;;;;;;;7.73;4.47;;;;;;;21.06;100.00;97703.53;5049934;28;20420;-73
2023/07/07 08:27:16;;;;;;;8.50;4.82;;;;;;;21.13;100.00;97705.78;5049887;28;20421;-72
2023/07/07 08:29:45;;;;;;;7.85;4.80;;;;;;;21.25;100.00;97695.25;5049974;28;20398;-73
2023/07/07 08:32:13;;;;;;;8.20;4.30;;;;;;;21.40;100.00;97702.13;5049027;28;20408;-73
2023/07/07 08:34:40;;;;;;;6.55;4.32;;;;;;;21.44;100.00;97705.75;5049833;28;20503;-72
2023/07/07 08:37:10;;;;;;;5.82;3.95;;;;;;;21.53;100.00;97709.25;5049899;28;20394;-72
2023/07/07 08:39:36;;;;;;;4.57;3.60;;;;;;;21.63;100.00;97709.78;5049839;28;20401;-72
2023/07/07 08:42:06;;;;;;;5.88;4.07;;;;;;;21.68;100.00;97708.81;5049643;28;20427;-72
2023/07/07 08:44:35;;;;;;;5.68;4.03;;;;;;;21.86;100.00;97698.88;5051042;28;20902;-72
2023/07/07 08:47:23;;;;;;;7.18;4.45;;;;;;;21.96;100.00;97698.53;5053420;28;20401;-73
2023/07/07 08:49:55;;;;;;;6.18;4.20;;;;;;;22.04;100.00;97703.16;5053556;28;20401;-74
2023/07/07 08:52:33;;;;;;;7.90;5.22;;;;;;;22.23;99.58;97700.16;5053375;28;20871;-74
2023/07/07 08:55:06;;;;;;;6.80;4.75;;;;;;;22.31;100.00;97702.06;5053429;28;20419;-73
2023/07/07 08:57:41;;;;;;;6.45;4.32;;;;;;;22.35;100.00;97695.69;5053225;28;20412;-73
2023/07/07 09:00:18;;;;;;;6.57;4.35;;;;;;;22.42;100.00;97702.50;5053292;28;20408;-73
2023/07/07 09:03:08;;;;;;;5.38;3.92;;;;;;;22.55;100.00;97706.94;5052870;28;20397;-73
2023/07/07 09:05:53;;;;;;;5.03;3.90;;;;;;;22.59;100.00;97692.47;5053132;28;20436;-73
2023/07/07 09:08:32;;;;;;;9.55;4.32;;;;;;;22.69;100.00;97688.66;5053134;28;20869;-72
2023/07/07 09:11:12;;;;;;;6.72;4.45;;;;;;;22.74;100.00;97694.69;5052816;28;20440;-73
2023/07/07 09:13:39;;;;;;;7.97;5.28;;;;;;;22.89;100.00;97687.19;5052763;28;20413;-74
2023/07/07 09:16:11;;;;;;;6.45;4.65;;;;;;;23.02;100.00;97681.56;5052911;28;20401;-74
2023/07/07 09:18:44;;;;;;;6.30;4.28;;;;;;;23.15;100.00;97701.38;5052912;28;20573;-74
2023/07/07 09:21:23;;;;;;;8.75;5.05;;;;;;;23.26;100.00;97699.88;5052755;28;20492;-74
2023/07/07 09:23:57;;;;;;;9.40;4.97;;;;;;;23.35;100.00;97686.34;5052855;28;20397;-73
2023/07/07 09:26:28;;;;;;;5.82;4.20;;;;;;;23.40;100.00;97689.63;5052089;28;20436;-74
2023/07/07 09:28:57;;;;;;;7.90;5.30;;;;;;;23.53;100.00;97688.63;5052167;28;20914;-74
2023/07/07 09:31:30;;;;;;;9.23;5.20;;;;;;;23.54;100.00;97675.91;5049656;28;20748;-73
2023/07/07 09:33:59;;;;;;;6.65;4.70;;;;;;;23.64;100.00;97670.13;5052395;28;20443;-73
2023/07/07 09:36:33;;;;;;;7.85;4.43;;;;;;;23.77;100.00;97673.69;5052490;28;20469;-73
2023/07/07 09:39:21;;;;;;;6.10;4.40;;;;;;;23.87;100.00;97673.28;5052593;28;20389;-73
2023/07/07 09:41:57;;;;;;;9.02;5.40;;;;;;;24.01;96.87;97664.91;5052321;28;20428;-73
2023/07/07 09:44:34;;;;;;;6.75;4.88;;;;;;;24.08;100.00;97671.38;5052297;28;20871;-73
2023/07/07 09:47:14;;;;;;;7.88;5.22;;;;;;;24.11;100.00;97678.84;5052196;28;20397;-73
2023/07/07 09:49:45;;;;;;;6.75;4.70;;;;;;;24.19;100.00;97669.84;5052276;28;20409;-72
2023/07/07 09:52:32;;;;;;;8.43;5.35;;;;;;;24.14;94.92;97670.03;5052244;28;20512;-72
2023/07/07 09:55:01;;;;;;;10.02;5.78;;;;;;;24.32;79.18;97659.09;5051845;28;20390;-72
2023/07/07 09:57:33;;;;;;;10.55;6.13;;;;;;;24.32;77.50;97667.22;5052174;28;20401;-71
2023/07/07 10:00:01;;;;;;;8.68;5.70;;;;;;;24.36;85.34;97665.44;5052160;28;20401;-72
2023/07/07 10:02:28;;;;;;;6.80;4.93;;;;;;;24.44;91.74;97659.91;5052007;28;20451;-73
2023/07/07 10:04:57;;;;;;;6.03;4.77;;;;;;;24.45;95.02;97661.50;5052034;28;20436;-72
2023/07/07 10:07:25;;;;;;;11.80;7.28;;;;;;;24.64;66.39;97663.69;5051774;28;20984;-72
2023/07/07 10:09:51;;;;;;;11.77;6.85;;;;;;;24.51;71.24;97665.56;5051855;28;20412;-72
2023/07/07 10:12:19;;;;;;;9.80;6.20;;;;;;;24.53;77.15;97662.53;5050636;28;20817;-72
2023/07/07 10:14:48;;;;;;;6.53;4.68;;;;;;;24.63;85.52;97654.00;5049971;28;20405;-72
2023/07/07 10:17:26;;;;;;;8.35;5.30;;;;;;;24.73;79.36;97655.47;5051174;28;20565;-72
2023/07/07 10:19:56;;;;;;;11.55;6.45;;;;;;;24.83;64.29;97644.97;5051030;28;20583;-72
2023/07/07 10:22:22;;;;;;;9.48;6.20;;;;;;;24.83;73.72;97646.91;5051845;28;20408;-72
2023/07/07 10:24:49;;;;;;;10.30;6.32;;;;;;;24.89;72.90;97649.03;5051829;28;20775;-72
2023/07/07 10:27:23;;;;;;;9.43;6.47;;;;;;;24.94;73.74;97651.59;5052099;28;20487;-72
2023/07/07 10:29:49;;;;;;;8.90;6.07;;;;;;;25.04;78.70;97645.69;5051369;28;20744;-72
2023/07/07 10:32:18;;;;;;;8.60;5.75;;;;;;;25.20;80.81;97653.16;5051414;28;20440;-72
2023/07/07 10:34:47;;;;;;;11.40;7.07;;;;;;;25.34;66.23;97646.25;5051337;28;20875;-72
2023/07/07 10:37:19;;;;;;;8.32;5.75;;;;;;;25.39;74.35;97647.94;5051608;28;20445;-72
2023/07/07 10:39:50;;;;;;;9.48;6.00;;;;;;;25.48;79.38;97662.19;5051327;28;20401;-72
2023/07/07 10:42:16;;;;;;;8.07;5.70;;;;;;;25.63;84.66;97650.66;5051267;28;20429;-72
2023/07/07 10:44:45;;;;;;;9.23;6.35;;;;;;;25.79;87.28;97654.22;5051042;28;20406;-72
2023/07/07 10:47:18;;;;;;;13.82;9.15;;;;;;;26.01;70.51;97657.56;5051237;28;20394;-72
2023/07/07 10:49:44;;;;;;;13.32;9.13;;;;;;;26.11;66.99;97651.63;5051147;28;20481;-72
2023/07/07 10:52:37;;;;;;;11.43;7.93;;;;;;;26.20;75.71;97652.25;5051040;28;20745;-73
2023/07/07 10:55:13;;;;;;;11.40;8.18;;;;;;;26.33;71.75;97650.31;5050527;28;20898;-72
2023/07/07 10:58:06;;;;;;;9.07;6.47;;;;;;;26.46;79.06;97655.31;5051001;28;20406;-73
2023/07/07 11:00:45;;;;;;;10.25;6.10;;;;;;;26.61;83.93;97650.28;5051132;28;20512;-72
2023/07/07 11:03:42;;;;;;;7.75;5.90;;;;;;;26.67;85.01;97633.38;5051110;28;20412;-72
2023/07/07 11:06:20;;;;;;;11.48;7.43;;;;;;;26.73;77.73;97642.03;5051010;28;20401;-72
2023/07/07 11:09:08;;;;;;;16.63;8.98;;;;;;;26.65;75.06;97641.06;5050707;28;20413;-73
2023/07/07 11:11:41;;;;;;;19.38;12.07;;;;;;;26.81;62.60;97647.31;5049883;28;20494;-72
2023/07/07 11:14:34;;;;;;;19.98;12.70;;;;;;;26.87;57.42;97645.09;5031400;28;20413;-72
2023/07/07 11:17:15;;;;;;;14.80;10.00;;;;;;;26.80;63.95;97637.56;5049758;28;20898;-72
2023/07/07 11:19:57;;;;;;;16.15;10.20;;;;;;;26.82;61.28;97638.03;5048118;28;20396;-72
2023/07/07 11:22:59;;;;;;;14.35;8.35;;;;;;;26.63;59.40;97632.47;5038970;28;20408;-72
2023/07/07 11:25:36;;;;;;;10.15;7.38;;;;;;;26.67;67.08;97617.06;5006144;28;20491;-72
2023/07/07 11:28:16;;;;;;;16.77;11.23;;;;;;;26.51;55.36;97625.22;5044397;28;21618;-73
2023/07/07 11:30:54;;;;;;;17.88;11.55;;;;;;;26.29;49.57;97625.00;5043311;28;20397;-73
2023/07/07 11:33:35;;;;;;;17.67;10.80;;;;;;;26.72;48.78;97624.16;5042187;28;20482;-73
2023/07/07 11:36:21;;;;;;;15.38;9.77;;;;;;;26.66;52.39;97625.56;5060083;28;20820;-72